sensor_id;sensor_type;location;lat;lon;timestamp;pressure;altitude;pressure_sealevel;temperature;humidity
73016;BME280;61893;50.074;14.440;2022-09-13T00:02:08;98347.28;;;13.19;80.83
73016;BME280;61893;50.074;14.440;2022-09-13T00:04:34;98341.22;;;13.41;80.70
73016;BME280;61893;50.074;14.440;2022-09-13T00:07:00;98336.19;;;13.46;80.30
73016;BME280;61893;50.074;14.440;2022-09-13T00:09:26;98336.91;;;13.63;80.56
73016;BME280;61893;50.074;14.440;2022-09-13T00:11:52;98333.56;;;13.22;81.57
73016;BME280;61893;50.074;14.440;2022-09-13T00:14:18;98339.47;;;13.25;81.54
73016;BME280;61893;50.074;14.440;2022-09-13T00:16:44;98339.22;;;13.35;81.33
73016;BME280;61893;50.074;14.440;2022-09-13T00:19:09;98332.59;;;13.31;81.66
73016;BME280;61893;50.074;14.440;2022-09-13T00:21:35;98327.81;;;13.49;81.15
73016;BME280;61893;50.074;14.440;2022-09-13T00:24:01;98334.72;;;13.36;81.70
73016;BME280;61893;50.074;14.440;2022-09-13T00:26:27;98333.22;;;12.94;82.66
73016;BME280;61893;50.074;14.440;2022-09-13T00:28:56;98323.13;;;13.12;82.49
73016;BME280;61893;50.074;14.440;2022-09-13T00:31:24;98328.97;;;13.07;82.62
73016;BME280;61893;50.074;14.440;2022-09-13T00:33:52;98317.03;;;12.87;83.27
73016;BME280;61893;50.074;14.440;2022-09-13T00:36:21;98315.41;;;13.25;82.46
73016;BME280;61893;50.074;14.440;2022-09-13T00:38:49;98314.09;;;13.13;82.30
73016;BME280;61893;50.074;14.440;2022-09-13T00:41:19;98311.03;;;13.33;81.69
73016;BME280;61893;50.074;14.440;2022-09-13T00:43:51;98309.75;;;13.12;82.29
73016;BME280;61893;50.074;14.440;2022-09-13T00:46:34;98311.91;;;12.77;83.61
73016;BME280;61893;50.074;14.440;2022-09-13T00:49:04;98303.13;;;13.08;82.84
73016;BME280;61893;50.074;14.440;2022-09-13T00:51:35;98297.72;;;12.77;83.39
73016;BME280;61893;50.074;14.440;2022-09-13T00:54:03;98297.25;;;12.65;84.27
73016;BME280;61893;50.074;14.440;2022-09-13T00:56:38;98287.72;;;13.10;83.08
73016;BME280;61893;50.074;14.440;2022-09-13T00:59:13;98293.34;;;13.23;82.02
73016;BME280;61893;50.074;14.440;2022-09-13T01:01:49;98291.66;;;12.91;82.95
73016;BME280;61893;50.074;14.440;2022-09-13T01:04:20;98289.06;;;12.67;84.18
73016;BME280;61893;50.074;14.440;2022-09-13T01:06:48;98288.38;;;12.73;83.88
73016;BME280;61893;50.074;14.440;2022-09-13T01:09:16;98285.72;;;12.73;83.49
73016;BME280;61893;50.074;14.440;2022-09-13T01:11:49;98292.34;;;12.85;82.61
73016;BME280;61893;50.074;14.440;2022-09-13T01:14:21;98286.34;;;12.83;83.24
73016;BME280;61893;50.074;14.440;2022-09-13T01:16:48;98278.72;;;12.72;83.04
73016;BME280;61893;50.074;14.440;2022-09-13T01:19:14;98278.03;;;12.70;83.11
73016;BME280;61893;50.074;14.440;2022-09-13T01:30:24;98275.75;;;12.58;83.42
73016;BME280;61893;50.074;14.440;2022-09-13T01:33:03;98271.97;;;12.36;84.23
73016;BME280;61893;50.074;14.440;2022-09-13T01:35:42;98280.56;;;12.71;82.76
73016;BME280;61893;50.074;14.440;2022-09-13T01:43:41;98264.25;;;12.58;83.43
73016;BME280;61893;50.074;14.440;2022-09-13T01:46:20;98267.25;;;12.55;83.32
73016;BME280;61893;50.074;14.440;2022-09-13T01:49:15;98271.63;;;12.48;83.22
73016;BME280;61893;50.074;14.440;2022-09-13T01:52:00;98258.81;;;12.35;83.95
73016;BME280;61893;50.074;14.440;2022-09-13T01:55:03;98259.00;;;12.73;82.46
73016;BME280;61893;50.074;14.440;2022-09-13T01:57:42;98260.44;;;12.36;83.25
73016;BME280;61893;50.074;14.440;2022-09-13T02:00:17;98255.97;;;12.36;83.80
73016;BME280;61893;50.074;14.440;2022-09-13T02:02:51;98257.16;;;12.26;83.81
73016;BME280;61893;50.074;14.440;2022-09-13T02:05:56;98241.50;;;12.23;84.49
73016;BME280;61893;50.074;14.440;2022-09-13T02:08:33;98242.66;;;12.12;84.18
73016;BME280;61893;50.074;14.440;2022-09-13T02:11:08;98245.94;;;12.47;83.55
73016;BME280;61893;50.074;14.440;2022-09-13T02:13:39;98245.16;;;12.77;82.62
73016;BME280;61893;50.074;14.440;2022-09-13T02:16:15;98242.00;;;12.74;82.32
73016;BME280;61893;50.074;14.440;2022-09-13T02:18:58;98249.56;;;12.62;81.55
73016;BME280;61893;50.074;14.440;2022-09-13T02:21:31;98247.81;;;12.22;83.06
73016;BME280;61893;50.074;14.440;2022-09-13T02:24:05;98244.97;;;12.31;83.34
73016;BME280;61893;50.074;14.440;2022-09-13T02:26:33;98237.84;;;12.71;81.71
73016;BME280;61893;50.074;14.440;2022-09-13T02:29:20;98238.09;;;12.45;82.20
73016;BME280;61893;50.074;14.440;2022-09-13T02:32:15;98225.31;;;12.24;82.93
73016;BME280;61893;50.074;14.440;2022-09-13T02:34:53;98219.50;;;12.68;81.52
73016;BME280;61893;50.074;14.440;2022-09-13T02:37:38;98220.06;;;12.47;81.51
73016;BME280;61893;50.074;14.440;2022-09-13T02:40:09;98222.44;;;12.42;82.54
73016;BME280;61893;50.074;14.440;2022-09-13T02:42:42;98216.81;;;12.29;82.53
73016;BME280;61893;50.074;14.440;2022-09-13T02:45:11;98212.06;;;12.47;81.67
73016;BME280;61893;50.074;14.440;2022-09-13T02:48:03;98222.00;;;12.14;83.02
73016;BME280;61893;50.074;14.440;2022-09-13T02:59:16;98216.41;;;12.48;82.17
73016;BME280;61893;50.074;14.440;2022-09-13T03:01:51;98213.88;;;11.99;83.76
73016;BME280;61893;50.074;14.440;2022-09-13T03:04:21;98215.84;;;12.13;83.52
73016;BME280;61893;50.074;14.440;2022-09-13T03:06:48;98215.19;;;12.11;83.35
73016;BME280;61893;50.074;14.440;2022-09-13T03:09:15;98220.19;;;12.06;83.32
73016;BME280;61893;50.074;14.440;2022-09-13T03:12:05;98218.53;;;11.97;83.57
73016;BME280;61893;50.074;14.440;2022-09-13T03:14:48;98209.31;;;12.24;82.54
73016;BME280;61893;50.074;14.440;2022-09-13T03:20:13;98218.06;;;11.93;83.89
73016;BME280;61893;50.074;14.440;2022-09-13T03:31:01;98213.00;;;12.15;83.61
73016;BME280;61893;50.074;14.440;2022-09-13T03:33:51;98215.06;;;11.88;83.98
73016;BME280;61893;50.074;14.440;2022-09-13T03:36:25;98220.38;;;12.05;84.32
73016;BME280;61893;50.074;14.440;2022-09-13T03:39:00;98224.19;;;11.69;84.57
73016;BME280;61893;50.074;14.440;2022-09-13T03:41:35;98228.19;;;11.73;84.79
73016;BME280;61893;50.074;14.440;2022-09-13T03:44:03;98227.38;;;11.98;83.76
73016;BME280;61893;50.074;14.440;2022-09-13T03:46:33;98228.88;;;12.00;83.01
73016;BME280;61893;50.074;14.440;2022-09-13T03:49:17;98234.69;;;11.71;84.24
73016;BME280;61893;50.074;14.440;2022-09-13T03:51:46;98227.22;;;11.91;84.25
73016;BME280;61893;50.074;14.440;2022-09-13T03:54:22;98234.50;;;11.40;85.79
73016;BME280;61893;50.074;14.440;2022-09-13T03:57:11;98242.31;;;11.49;85.38
73016;BME280;61893;50.074;14.440;2022-09-13T03:59:41;98236.84;;;11.59;85.18
73016;BME280;61893;50.074;14.440;2022-09-13T04:02:25;98245.84;;;11.75;84.33
73016;BME280;61893;50.074;14.440;2022-09-13T04:04:51;98237.50;;;11.69;84.49
73016;BME280;61893;50.074;14.440;2022-09-13T04:07:20;98231.88;;;11.89;83.86
73016;BME280;61893;50.074;14.440;2022-09-13T04:09:46;98241.97;;;11.44;85.28
73016;BME280;61893;50.074;14.440;2022-09-13T04:12:13;98228.31;;;12.13;83.63
73016;BME280;61893;50.074;14.440;2022-09-13T04:14:40;98232.50;;;12.07;82.69
73016;BME280;61893;50.074;14.440;2022-09-13T04:17:06;98229.06;;;11.90;83.44
73016;BME280;61893;50.074;14.440;2022-09-13T04:19:32;98237.03;;;11.82;84.15
73016;BME280;61893;50.074;14.440;2022-09-13T04:21:58;98237.00;;;11.66;84.85
73016;BME280;61893;50.074;14.440;2022-09-13T04:24:28;98236.19;;;11.73;84.03
73016;BME280;61893;50.074;14.440;2022-09-13T04:26:55;98229.47;;;12.18;82.43
73016;BME280;61893;50.074;14.440;2022-09-13T04:29:22;98231.69;;;11.82;83.51
73016;BME280;61893;50.074;14.440;2022-09-13T04:31:52;98227.84;;;11.77;83.66
73016;BME280;61893;50.074;14.440;2022-09-13T04:34:19;98220.88;;;11.92;83.37
73016;BME280;61893;50.074;14.440;2022-09-13T04:36:47;98223.38;;;11.85;83.43
73016;BME280;61893;50.074;14.440;2022-09-13T04:39:13;98219.56;;;11.88;83.04
73016;BME280;61893;50.074;14.440;2022-09-13T04:41:43;98222.69;;;11.50;84.70
73016;BME280;61893;50.074;14.440;2022-09-13T04:44:11;98211.19;;;11.83;83.78
73016;BME280;61893;50.074;14.440;2022-09-13T04:46:37;98218.19;;;11.51;83.95
73016;BME280;61893;50.074;14.440;2022-09-13T04:49:03;98212.03;;;11.75;83.43
73016;BME280;61893;50.074;14.440;2022-09-13T04:51:29;98208.00;;;11.30;85.28
73016;BME280;61893;50.074;14.440;2022-09-13T04:53:55;98206.19;;;11.22;85.96
73016;BME280;61893;50.074;14.440;2022-09-13T04:56:23;98201.72;;;11.47;85.08
73016;BME280;61893;50.074;14.440;2022-09-13T04:58:53;98204.03;;;11.59;84.41
73016;BME280;61893;50.074;14.440;2022-09-13T05:01:19;98203.38;;;11.98;83.47
73016;BME280;61893;50.074;14.440;2022-09-13T05:04:00;98195.69;;;11.70;84.38
73016;BME280;61893;50.074;14.440;2022-09-13T05:06:27;98198.19;;;11.47;84.58
73016;BME280;61893;50.074;14.440;2022-09-13T05:08:57;98192.19;;;11.69;84.42
73016;BME280;61893;50.074;14.440;2022-09-13T05:11:27;98191.38;;;11.69;84.15
73016;BME280;61893;50.074;14.440;2022-09-13T05:13:56;98184.03;;;11.79;84.24
73016;BME280;61893;50.074;14.440;2022-09-13T05:16:23;98204.34;;;11.56;84.89
73016;BME280;61893;50.074;14.440;2022-09-13T05:18:50;98192.53;;;11.75;84.17
73016;BME280;61893;50.074;14.440;2022-09-13T05:21:17;98197.03;;;11.58;84.52
73016;BME280;61893;50.074;14.440;2022-09-13T05:23:43;98205.38;;;11.63;84.52
73016;BME280;61893;50.074;14.440;2022-09-13T05:26:09;98202.53;;;11.81;84.09
73016;BME280;61893;50.074;14.440;2022-09-13T05:28:35;98224.00;;;11.38;85.33
73016;BME280;61893;50.074;14.440;2022-09-13T05:31:14;98230.66;;;11.59;84.63
73016;BME280;61893;50.074;14.440;2022-09-13T05:33:52;98227.16;;;11.50;84.35
73016;BME280;61893;50.074;14.440;2022-09-13T05:36:18;98225.00;;;11.29;85.67
73016;BME280;61893;50.074;14.440;2022-09-13T05:38:44;98220.88;;;11.59;84.98
73016;BME280;61893;50.074;14.440;2022-09-13T05:41:10;98219.50;;;11.47;84.69
73016;BME280;61893;50.074;14.440;2022-09-13T05:43:36;98214.88;;;11.57;84.61
73016;BME280;61893;50.074;14.440;2022-09-13T05:46:14;98223.16;;;11.79;84.36
73016;BME280;61893;50.074;14.440;2022-09-13T05:49:04;98233.00;;;11.78;83.74
73016;BME280;61893;50.074;14.440;2022-09-13T05:51:49;98227.34;;;12.22;83.59
73016;BME280;61893;50.074;14.440;2022-09-13T05:54:41;98225.31;;;12.24;82.03
73016;BME280;61893;50.074;14.440;2022-09-13T05:57:27;98223.84;;;12.13;82.56
73016;BME280;61893;50.074;14.440;2022-09-13T06:00:13;98229.63;;;12.81;81.11
73016;BME280;61893;50.074;14.440;2022-09-13T06:02:57;98223.19;;;12.11;82.79
73016;BME280;61893;50.074;14.440;2022-09-13T06:05:26;98221.69;;;12.09;82.40
73016;BME280;61893;50.074;14.440;2022-09-13T06:07:58;98218.31;;;12.23;81.50
73016;BME280;61893;50.074;14.440;2022-09-13T06:10:26;98208.31;;;12.33;81.55
73016;BME280;61893;50.074;14.440;2022-09-13T06:12:53;98212.22;;;12.54;80.53
73016;BME280;61893;50.074;14.440;2022-09-13T06:15:32;98210.56;;;12.45;80.83
73016;BME280;61893;50.074;14.440;2022-09-13T06:18:21;98206.84;;;12.93;80.49
73016;BME280;61893;50.074;14.440;2022-09-13T06:21:21;98199.50;;;12.64;80.20
73016;BME280;61893;50.074;14.440;2022-09-13T06:23:53;98188.41;;;13.06;79.89
73016;BME280;61893;50.074;14.440;2022-09-13T06:26:30;98187.19;;;13.17;79.60
73016;BME280;61893;50.074;14.440;2022-09-13T06:29:09;98192.31;;;13.27;78.37
73016;BME280;61893;50.074;14.440;2022-09-13T06:32:03;98181.56;;;12.81;80.17
73016;BME280;61893;50.074;14.440;2022-09-13T06:34:36;98181.81;;;12.94;80.02
73016;BME280;61893;50.074;14.440;2022-09-13T06:37:20;98187.84;;;12.96;79.21
73016;BME280;61893;50.074;14.440;2022-09-13T06:40:16;98189.16;;;13.23;79.35
73016;BME280;61893;50.074;14.440;2022-09-13T06:42:51;98186.81;;;13.51;78.69
73016;BME280;61893;50.074;14.440;2022-09-13T06:45:23;98185.22;;;13.42;78.52
73016;BME280;61893;50.074;14.440;2022-09-13T06:48:06;98187.66;;;13.21;78.41
73016;BME280;61893;50.074;14.440;2022-09-13T06:51:12;98195.28;;;13.93;76.28
73016;BME280;61893;50.074;14.440;2022-09-13T06:53:53;98192.28;;;14.55;74.11
73016;BME280;61893;50.074;14.440;2022-09-13T06:56:38;98196.50;;;14.50;73.68
73016;BME280;61893;50.074;14.440;2022-09-13T06:59:09;98189.69;;;14.03;75.56
73016;BME280;61893;50.074;14.440;2022-09-13T07:01:37;98191.63;;;13.94;76.61
73016;BME280;61893;50.074;14.440;2022-09-13T07:04:09;98194.00;;;14.04;76.09
73016;BME280;61893;50.074;14.440;2022-09-13T07:06:41;98192.66;;;14.37;75.34
73016;BME280;61893;50.074;14.440;2022-09-13T07:09:12;98184.72;;;14.29;75.37
73016;BME280;61893;50.074;14.440;2022-09-13T07:11:56;98180.84;;;14.17;75.56
73016;BME280;61893;50.074;14.440;2022-09-13T07:14:31;98187.56;;;14.28;75.61
73016;BME280;61893;50.074;14.440;2022-09-13T07:16:59;98183.59;;;14.38;75.15
73016;BME280;61893;50.074;14.440;2022-09-13T07:19:26;98178.53;;;14.43;74.79
73016;BME280;61893;50.074;14.440;2022-09-13T07:21:54;98178.25;;;14.53;74.69
73016;BME280;61893;50.074;14.440;2022-09-13T07:24:21;98183.44;;;14.55;74.51
73016;BME280;61893;50.074;14.440;2022-09-13T07:26:48;98180.53;;;14.41;74.93
73016;BME280;61893;50.074;14.440;2022-09-13T07:29:22;98181.09;;;14.81;73.90
73016;BME280;61893;50.074;14.440;2022-09-13T07:31:52;98178.06;;;14.40;74.60
73016;BME280;61893;50.074;14.440;2022-09-13T07:34:24;98179.44;;;14.36;75.44
73016;BME280;61893;50.074;14.440;2022-09-13T07:37:07;98178.16;;;14.32;75.70
73016;BME280;61893;50.074;14.440;2022-09-13T07:39:39;98178.91;;;14.55;74.72
73016;BME280;61893;50.074;14.440;2022-09-13T07:42:46;98168.38;;;14.69;74.55
73016;BME280;61893;50.074;14.440;2022-09-13T07:45:23;98166.97;;;15.09;72.82
73016;BME280;61893;50.074;14.440;2022-09-13T07:48:34;98166.63;;;15.62;70.71
73016;BME280;61893;50.074;14.440;2022-09-13T07:51:43;98171.56;;;15.15;72.34
73016;BME280;61893;50.074;14.440;2022-09-13T07:57:59;98165.13;;;15.74;71.09
73016;BME280;61893;50.074;14.440;2022-09-13T08:01:23;98160.94;;;15.93;70.22
73016;BME280;61893;50.074;14.440;2022-09-13T08:04:10;98162.06;;;15.55;71.14
73016;BME280;61893;50.074;14.440;2022-09-13T08:06:39;98155.56;;;15.93;70.57
73016;BME280;61893;50.074;14.440;2022-09-13T08:09:40;98158.25;;;15.93;70.31
73016;BME280;61893;50.074;14.440;2022-09-13T08:12:19;98169.47;;;16.03;69.91
73016;BME280;61893;50.074;14.440;2022-09-13T08:15:27;98181.47;;;16.07;69.72
73016;BME280;61893;50.074;14.440;2022-09-13T08:17:53;98169.25;;;15.76;70.61
73016;BME280;61893;50.074;14.440;2022-09-13T08:20:22;98171.25;;;16.24;68.71
73016;BME280;61893;50.074;14.440;2022-09-13T08:22:48;98174.38;;;16.28;68.89
73016;BME280;61893;50.074;14.440;2022-09-13T08:25:14;98178.09;;;16.27;69.29
73016;BME280;61893;50.074;14.440;2022-09-13T08:27:41;98171.75;;;16.41;68.89
73016;BME280;61893;50.074;14.440;2022-09-13T08:30:07;98160.91;;;16.62;68.46
73016;BME280;61893;50.074;14.440;2022-09-13T08:32:33;98164.59;;;16.55;68.06
73016;BME280;61893;50.074;14.440;2022-09-13T08:34:59;98164.66;;;16.68;68.23
73016;BME280;61893;50.074;14.440;2022-09-13T08:37:25;98163.94;;;16.46;68.14
73016;BME280;61893;50.074;14.440;2022-09-13T08:39:51;98171.72;;;16.76;67.97
73016;BME280;61893;50.074;14.440;2022-09-13T08:45:15;98172.31;;;17.39;65.68
73016;BME280;61893;50.074;14.440;2022-09-13T08:47:56;98169.28;;;17.82;64.60
73016;BME280;61893;50.074;14.440;2022-09-13T08:50:30;98170.50;;;17.93;64.17
73016;BME280;61893;50.074;14.440;2022-09-13T08:56:10;98169.56;;;18.45;63.11
73016;BME280;61893;50.074;14.440;2022-09-13T09:07:02;98166.75;;;18.92;62.13
73016;BME280;61893;50.074;14.440;2022-09-13T09:09:53;98167.63;;;18.86;61.03
73016;BME280;61893;50.074;14.440;2022-09-13T09:12:40;98162.31;;;19.04;61.35
73016;BME280;61893;50.074;14.440;2022-09-13T09:18:18;98152.38;;;19.05;60.78
73016;BME280;61893;50.074;14.440;2022-09-13T09:20:50;98145.47;;;19.16;60.63
73016;BME280;61893;50.074;14.440;2022-09-13T09:23:37;98137.81;;;19.44;59.98
73016;BME280;61893;50.074;14.440;2022-09-13T09:26:18;98133.56;;;19.55;60.15
73016;BME280;61893;50.074;14.440;2022-09-13T09:29:23;98130.69;;;19.50;59.70
73016;BME280;61893;50.074;14.440;2022-09-13T09:32:36;98139.31;;;19.65;59.85
73016;BME280;61893;50.074;14.440;2022-09-13T09:35:52;98126.81;;;19.71;59.05
73016;BME280;61893;50.074;14.440;2022-09-13T09:38:47;98113.28;;;19.77;59.17
73016;BME280;61893;50.074;14.440;2022-09-13T09:41:23;98111.78;;;20.00;58.97
73016;BME280;61893;50.074;14.440;2022-09-13T09:44:22;98113.66;;;19.81;59.08
73016;BME280;61893;50.074;14.440;2022-09-13T09:46:56;98107.31;;;20.12;58.26
73016;BME280;61893;50.074;14.440;2022-09-13T09:50:10;98115.44;;;20.12;59.15
73016;BME280;61893;50.074;14.440;2022-09-13T09:52:49;98114.50;;;20.00;58.28
73016;BME280;61893;50.074;14.440;2022-09-13T09:58:03;98111.44;;;19.71;59.30
73016;BME280;61893;50.074;14.440;2022-09-13T10:00:49;98107.38;;;20.06;58.68
73016;BME280;61893;50.074;14.440;2022-09-13T10:03:18;98087.50;;;20.18;58.27
73016;BME280;61893;50.074;14.440;2022-09-13T10:06:14;98081.53;;;20.35;58.26
73016;BME280;61893;50.074;14.440;2022-09-13T10:08:47;98080.09;;;20.32;57.81
73016;BME280;61893;50.074;14.440;2022-09-13T10:11:48;98085.88;;;20.17;57.91
73016;BME280;61893;50.074;14.440;2022-09-13T10:14:44;98072.25;;;20.42;57.77
73016;BME280;61893;50.074;14.440;2022-09-13T10:17:26;98076.94;;;20.35;57.87
73016;BME280;61893;50.074;14.440;2022-09-13T10:22:38;98065.75;;;21.10;55.18
73016;BME280;61893;50.074;14.440;2022-09-13T10:27:53;98056.47;;;20.76;55.02
73016;BME280;61893;50.074;14.440;2022-09-13T10:30:34;98054.81;;;21.17;53.84
73016;BME280;61893;50.074;14.440;2022-09-13T10:33:07;98058.38;;;21.29;53.71
73016;BME280;61893;50.074;14.440;2022-09-13T10:35:47;98049.69;;;21.86;51.77
73016;BME280;61893;50.074;14.440;2022-09-13T10:39:05;98055.84;;;21.58;52.52
73016;BME280;61893;50.074;14.440;2022-09-13T10:41:36;98051.94;;;21.66;52.76
73016;BME280;61893;50.074;14.440;2022-09-13T10:44:23;98046.19;;;21.50;52.63
73016;BME280;61893;50.074;14.440;2022-09-13T10:47:29;98035.78;;;21.24;53.61
73016;BME280;61893;50.074;14.440;2022-09-13T10:52:43;98014.06;;;21.00;55.18
73016;BME280;61893;50.074;14.440;2022-09-13T10:55:38;98011.88;;;20.67;57.42
73016;BME280;61893;50.074;14.440;2022-09-13T11:01:11;98018.72;;;20.69;57.12
73016;BME280;61893;50.074;14.440;2022-09-13T11:04:44;98023.16;;;20.45;57.48
73016;BME280;61893;50.074;14.440;2022-09-13T11:09:59;98035.50;;;21.02;55.83
73016;BME280;61893;50.074;14.440;2022-09-13T11:15:42;98052.00;;;21.12;55.15
73016;BME280;61893;50.074;14.440;2022-09-13T11:24:46;98042.38;;;21.28;55.35
73016;BME280;61893;50.074;14.440;2022-09-13T11:27:39;98035.78;;;21.35;53.09
73016;BME280;61893;50.074;14.440;2022-09-13T11:30:30;98024.75;;;21.49;52.13
73016;BME280;61893;50.074;14.440;2022-09-13T11:35:52;98031.56;;;21.63;51.11
73016;BME280;61893;50.074;14.440;2022-09-13T11:38:56;98027.06;;;21.10;52.31
73016;BME280;61893;50.074;14.440;2022-09-13T11:41:47;98021.53;;;21.17;51.71
73016;BME280;61893;50.074;14.440;2022-09-13T11:55:24;98006.25;;;21.34;50.87
73016;BME280;61893;50.074;14.440;2022-09-13T12:01:53;98008.00;;;21.28;51.24
73016;BME280;61893;50.074;14.440;2022-09-13T12:04:44;97997.91;;;21.24;51.57
73016;BME280;61893;50.074;14.440;2022-09-13T12:07:43;97997.56;;;21.32;51.28
73016;BME280;61893;50.074;14.440;2022-09-13T12:10:56;97992.81;;;21.04;51.77
73016;BME280;61893;50.074;14.440;2022-09-13T12:14:00;97987.41;;;21.04;51.07
73016;BME280;61893;50.074;14.440;2022-09-13T12:16:44;97982.94;;;20.98;51.43
73016;BME280;61893;50.074;14.440;2022-09-13T12:19:58;97983.78;;;21.10;51.86
73016;BME280;61893;50.074;14.440;2022-09-13T12:22:05;97968.94;;;20.89;52.47
73016;BME280;61893;50.074;14.440;2022-09-13T12:25:02;97971.19;;;21.15;51.87
73016;BME280;61893;50.074;14.440;2022-09-13T12:27:44;97974.88;;;21.45;50.69
73016;BME280;61893;50.074;14.440;2022-09-13T12:30:14;97971.00;;;21.52;50.35
73016;BME280;61893;50.074;14.440;2022-09-13T12:32:57;97964.16;;;21.62;50.83
73016;BME280;61893;50.074;14.440;2022-09-13T12:35:30;97964.34;;;21.72;50.53
73016;BME280;61893;50.074;14.440;2022-09-13T12:41:55;97959.84;;;22.01;49.04
73016;BME280;61893;50.074;14.440;2022-09-13T12:56:09;97929.16;;;21.72;50.04
73016;BME280;61893;50.074;14.440;2022-09-13T12:59:02;97926.59;;;22.05;49.24
73016;BME280;61893;50.074;14.440;2022-09-13T13:01:43;97934.81;;;22.22;49.42
73016;BME280;61893;50.074;14.440;2022-09-13T13:04:26;97932.00;;;22.17;48.96
73016;BME280;61893;50.074;14.440;2022-09-13T13:07:05;97937.03;;;22.25;48.98
73016;BME280;61893;50.074;14.440;2022-09-13T13:09:41;97928.25;;;22.07;49.68
73016;BME280;61893;50.074;14.440;2022-09-13T13:12:30;97943.16;;;22.33;49.92
73016;BME280;61893;50.074;14.440;2022-09-13T13:15:00;97939.31;;;22.05;50.10
73016;BME280;61893;50.074;14.440;2022-09-13T13:17:39;97935.16;;;22.14;49.40
73016;BME280;61893;50.074;14.440;2022-09-13T13:36:46;97931.28;;;22.22;47.73
73016;BME280;61893;50.074;14.440;2022-09-13T13:42:12;97904.63;;;21.90;48.13
73016;BME280;61893;50.074;14.440;2022-09-13T14:00:15;97904.78;;;21.72;49.25
73016;BME280;61893;50.074;14.440;2022-09-13T14:05:30;97900.78;;;21.74;48.83
73016;BME280;61893;50.074;14.440;2022-09-13T14:11:14;97905.19;;;21.64;49.31
73016;BME280;61893;50.074;14.440;2022-09-13T14:13:58;97900.75;;;21.86;49.13
73016;BME280;61893;50.074;14.440;2022-09-13T14:19:18;97906.47;;;21.61;50.04
73016;BME280;61893;50.074;14.440;2022-09-13T14:22:10;97906.41;;;21.85;49.80
73016;BME280;61893;50.074;14.440;2022-09-13T14:24:45;97905.00;;;21.82;50.55
73016;BME280;61893;50.074;14.440;2022-09-13T14:27:38;97897.66;;;21.94;50.03
73016;BME280;61893;50.074;14.440;2022-09-13T14:30:28;97890.41;;;22.23;49.41
73016;BME280;61893;50.074;14.440;2022-09-13T14:32:57;97882.28;;;22.12;50.05
73016;BME280;61893;50.074;14.440;2022-09-13T14:35:34;97872.25;;;21.95;50.46
73016;BME280;61893;50.074;14.440;2022-09-13T14:38:22;97871.97;;;21.97;50.60
73016;BME280;61893;50.074;14.440;2022-09-13T14:41:13;97869.59;;;22.00;51.10
73016;BME280;61893;50.074;14.440;2022-09-13T14:43:43;97868.13;;;21.93;50.92
73016;BME280;61893;50.074;14.440;2022-09-13T14:46:17;97863.03;;;21.96;51.00
73016;BME280;61893;50.074;14.440;2022-09-13T14:48:48;97855.44;;;21.81;51.88
73016;BME280;61893;50.074;14.440;2022-09-13T14:53:45;97858.75;;;21.72;52.45
73016;BME280;61893;50.074;14.440;2022-09-13T14:56:40;97859.94;;;21.76;53.14
73016;BME280;61893;50.074;14.440;2022-09-13T14:59:11;97856.91;;;21.72;53.45
73016;BME280;61893;50.074;14.440;2022-09-13T15:01:39;97854.53;;;21.76;53.16
73016;BME280;61893;50.074;14.440;2022-09-13T15:04:15;97850.78;;;21.94;52.85
73016;BME280;61893;50.074;14.440;2022-09-13T15:06:48;97848.41;;;21.80;53.64
73016;BME280;61893;50.074;14.440;2022-09-13T15:09:33;97847.03;;;21.95;53.23
73016;BME280;61893;50.074;14.440;2022-09-13T15:12:02;97848.00;;;21.89;53.32
73016;BME280;61893;50.074;14.440;2022-09-13T15:14:32;97841.56;;;21.78;55.00
73016;BME280;61893;50.074;14.440;2022-09-13T15:17:06;97846.41;;;21.76;53.91
73016;BME280;61893;50.074;14.440;2022-09-13T15:19:38;97834.38;;;21.72;54.18
73016;BME280;61893;50.074;14.440;2022-09-13T15:24:41;97841.13;;;21.69;54.47
73016;BME280;61893;50.074;14.440;2022-09-13T15:27:29;97844.31;;;21.66;55.49
73016;BME280;61893;50.074;14.440;2022-09-13T15:29:58;97841.22;;;21.74;55.62
73016;BME280;61893;50.074;14.440;2022-09-13T15:32:42;97852.78;;;21.70;56.00
73016;BME280;61893;50.074;14.440;2022-09-13T15:35:23;97860.59;;;21.83;54.10
73016;BME280;61893;50.074;14.440;2022-09-13T15:37:59;97851.81;;;22.33;51.81
73016;BME280;61893;50.074;14.440;2022-09-13T15:40:29;97849.50;;;22.25;51.90
73016;BME280;61893;50.074;14.440;2022-09-13T15:43:16;97843.53;;;22.57;51.10
73016;BME280;61893;50.074;14.440;2022-09-13T15:45:42;97828.72;;;22.31;51.99
73016;BME280;61893;50.074;14.440;2022-09-13T15:48:21;97830.38;;;22.32;51.80
73016;BME280;61893;50.074;14.440;2022-09-13T15:51:10;97825.31;;;22.52;50.95
73016;BME280;61893;50.074;14.440;2022-09-13T15:53:38;97829.06;;;22.68;50.68
73016;BME280;61893;50.074;14.440;2022-09-13T15:56:05;97821.41;;;22.31;51.56
73016;BME280;61893;50.074;14.440;2022-09-13T15:58:33;97820.84;;;22.46;51.16
73016;BME280;61893;50.074;14.440;2022-09-13T16:00:59;97816.63;;;22.89;50.27
73016;BME280;61893;50.074;14.440;2022-09-13T16:03:25;97820.09;;;23.01;49.61
73016;BME280;61893;50.074;14.440;2022-09-13T16:05:51;97825.53;;;23.01;49.58
73016;BME280;61893;50.074;14.440;2022-09-13T16:08:20;97829.31;;;22.66;50.24
73016;BME280;61893;50.074;14.440;2022-09-13T16:10:46;97833.75;;;22.56;50.51
73016;BME280;61893;50.074;14.440;2022-09-13T16:13:12;97828.44;;;22.61;50.25
73016;BME280;61893;50.074;14.440;2022-09-13T16:15:37;97835.06;;;22.36;51.16
73016;BME280;61893;50.074;14.440;2022-09-13T16:18:03;97832.09;;;22.21;52.03
73016;BME280;61893;50.074;14.440;2022-09-13T16:20:29;97831.75;;;22.17;52.11
73016;BME280;61893;50.074;14.440;2022-09-13T16:22:55;97822.06;;;22.21;52.20
73016;BME280;61893;50.074;14.440;2022-09-13T16:25:24;97818.44;;;22.16;52.71